Flight Track Log - Related Links

Times and Time Zones

All times are in EDT time to prevent confusion due to time zone crossing. See the N10UC flight status page for this flight to view local times or setup timezone preferences in your user account.

Time Position Orientation Groundspeed Altitude Reporting Facility
EDT Latitude Longitude Course Direction KTS MPH feet Rate Location/Type
Mon 12:01:03 PM 25.9114 -80.2569 79° East 154 177 300  Level Miami Center
Mon 12:02:39 PM 25.9283 -80.1581 79° East 253 291 3,400 2,000 Climbing Miami Center
Mon 12:03:39 PM 25.9361 -80.0867 83° East 248 285 5,500 1,950 Climbing Miami Center
Mon 12:04:39 PM 25.9400 -80.0036 87° East 255 293 7,300 1,950 Climbing Miami Center
Mon 12:05:39 PM 25.9689 -79.9189 69° East 271 312 9,400 1,950 Climbing Miami Center
Mon 12:06:39 PM 25.9583 -79.8239 97° East 284 327 11,200 1,850 Climbing Miami Center
Mon 12:07:39 PM 25.9622 -79.7292 87° East 295 339 13,100 1,700 Climbing Miami Center
Mon 12:08:39 PM 25.9683 -79.6322 86° East 307 353 14,600 1,500 Climbing Miami Center
Mon 12:09:39 PM 25.9600 -79.5211 95° East 318 366 16,100 1,300 Climbing Miami Center
Mon 12:10:39 PM 25.9450 -79.4261 100° East 333 383 17,200 933 Climbing Miami Center
Mon 12:12:00 PM 25.9512 -79.2598 98° East  Level FlightAware Approximate
Mon 12:12:39 PM 25.9108 -79.2153 98° East 346 398 18,900  Level Miami Center
Mon 12:13:39 PM 25.8917 -79.1039 101° East 356 410 19,900 1,050 Climbing Miami Center
Mon 12:14:39 PM 25.8747 -78.9928 100° East 356 410 21,000 1,000 Climbing Miami Center
Mon 12:15:39 PM 25.8636 -78.8794 96° East 361 415 21,900 1,100 Climbing Miami Center
Mon 12:16:39 PM 25.8506 -78.7731 98° East 356 410 23,200 1,250 Climbing Miami Center
Mon 12:17:39 PM 25.8372 -78.6642 98° East 351 404 24,400 1,000 Climbing Miami Center
Mon 12:18:39 PM 25.7903 -78.5758 121° Southeast 332 382 25,200 900 Climbing Miami Center
Mon 12:19:39 PM 25.7411 -78.4897 122° Southeast 327 376 26,200 1,000 Climbing Miami Center
Mon 12:20:39 PM 25.6897 -78.4083 125° Southeast 327 376 27,200 850 Climbing Miami Center
Mon 12:21:39 PM 25.6361 -78.3294 127° Southeast 327 376 27,900 600 Climbing Miami Center
Mon 12:22:39 PM 25.5825 -78.2506 127° Southeast 327 376 28,400 550 Climbing Miami Center
Mon 12:23:39 PM 25.5311 -78.1669 124° Southeast 322 371 29,000 650 Climbing Miami Center
Mon 12:24:39 PM 25.4797 -78.0836 124° Southeast 322 371 29,700 600 Climbing Miami Center
Mon 12:25:39 PM 25.4300 -78.0069 126° Southeast 322 371 30,200 500 Climbing Miami Center
Mon 12:26:39 PM 25.3783 -77.9306 127° Southeast 322 371 30,700 400 Climbing Miami Center
Mon 12:27:39 PM 25.3225 -77.8542 129° Southeast 322 371 31,000 150 Climbing Miami Center
Mon 12:28:39 PM 25.2519 -77.7939 142° Southeast 315 362 31,000  Level Miami Center
Mon 12:29:39 PM 25.1811 -77.7269 139° Southeast 325 374 31,000  Level Miami Center
Mon 12:30:39 PM 25.1083 -77.6622 141° Southeast 338 389 31,000  Level Miami Center
Mon 12:31:39 PM 25.0294 -77.5906 141° Southeast 350 403 31,000  Level Miami Center
Mon 12:32:39 PM 24.9544 -77.5006 133° Southeast 370 426 31,000  Level Miami Center
Mon 12:33:39 PM 24.8797 -77.4064 131° Southeast 385 443 31,000  Level Miami Center
Mon 12:34:39 PM 24.8089 -77.3144 130° Southeast 396 456 31,000  Level Miami Center
Mon 12:35:39 PM 24.7256 -77.2272 136° Southeast 403 464 31,000  Level Miami Center
Mon 12:36:39 PM 24.6381 -77.1447 139° Southeast 408 470 31,000  Level Miami Center
Mon 12:37:39 PM 24.5483 -77.0622 140° Southeast 420 483 31,000  Level Miami Center
Mon 12:38:39 PM 24.4583 -76.9797 140° Southeast 426 490 31,000 550 Level Miami Center
Mon 12:39:39 PM 24.3686 -76.9000 141° Southeast 426 490 32,100 1,000 Climbing Miami Center
Mon 12:40:39 PM 24.2892 -76.8247 139° Southeast 403 464 33,000 450 Climbing Miami Center
Mon 12:41:39 PM 24.2056 -76.7494 141° Southeast 392 451 33,000  Level Miami Center
Mon 12:42:39 PM 24.1239 -76.6767 141° Southeast 386 444 33,000  Level Miami Center
Mon 12:43:39 PM 24.0339 -76.6039 144° Southeast 391 450 33,000  Level Miami Center
Mon 12:44:39 PM 23.9461 -76.5336 144° Southeast 396 456 33,000  Level Miami Center
Mon 12:45:39 PM 23.8456 -76.4794 154° Southeast 396 456 33,000  Level Miami Center
Mon 12:46:39 PM 23.7472 -76.4253 153° Southeast 396 456 33,000  Level Miami Center
Mon 12:47:39 PM 23.6531 -76.3575 147° Southeast 402 463 33,000  Level Miami Center
Mon 12:48:39 PM 23.5650 -76.2742 139° Southeast 407 468 33,000  Level Miami Center
Mon 12:49:39 PM 23.4747 -76.1975 142° Southeast 412 474 33,000  Level Miami Center
Mon 12:50:39 PM 23.3844 -76.1164 140° Southeast 417 480 33,000  Level Miami Center
Mon 12:51:39 PM 23.2922 -76.0400 143° Southeast 422 486 33,000  Level Miami Center
Mon 12:52:39 PM 23.1933 -75.9503 140° Southeast 422 486 33,000  Level Miami Center
Mon 12:53:39 PM 23.1008 -75.8697 141° Southeast 422 486 33,000  Level Miami Center
Mon 12:54:39 PM 23.0106 -75.7892 141° Southeast 422 486 33,000  Level Miami Center
Mon 12:55:39 PM 22.9181 -75.7086 141° Southeast 422 486 33,000  Level Miami Center
Mon 12:56:39 PM 22.8297 -75.6261 139° Southeast 422 486 33,000  Level Miami Center
Mon 12:57:39 PM 22.7392 -75.5436 140° Southeast 427 491 33,000  Level Miami Center
Mon 12:58:39 PM 22.6486 -75.4611 140° Southeast 427 491 33,000  Level Miami Center
Mon 12:59:39 PM 22.5558 -75.3789 141° Southeast 427 491 33,000  Level Miami Center
Mon 01:00:39 PM 22.4650 -75.2947 139° Southeast 427 491 33,000  Level Miami Center
Mon 01:01:39 PM 22.3744 -75.2125 140° Southeast 427 491 33,000  Level Miami Center
Mon 01:02:39 PM 22.2817 -75.1286 140° Southeast 427 491 33,000 50 Level Miami Center
Mon 01:03:39 PM 22.1908 -75.0444 139° Southeast 427 491 33,100  Climbing Miami Center
Mon 01:04:39 PM 22.1019 -74.9650 140° Southeast 427 491 33,000 -50 Descending Miami Center
Mon 01:05:39 PM 22.0156 -74.8900 141° Southeast 415 478 33,000  Level Miami Center
Mon 01:06:39 PM 21.9458 -74.8283 141° Southeast 409 471 33,000  Level Miami Center
Mon 01:07:39 PM 21.8547 -74.7403 138° Southeast 402 463 33,000  Level Miami Center
Mon 01:08:39 PM 21.7658 -74.6636 141° Southeast 407 468 33,000  Level Miami Center
Mon 01:09:39 PM 21.6769 -74.5778 138° Southeast 413 475 33,000  Level Miami Center
Mon 01:10:39 PM 21.5881 -74.5011 141° Southeast 413 475 33,000  Level Miami Center
Mon 01:11:39 PM 21.4992 -74.4203 140° Southeast 413 475 33,000  Level Miami Center
Mon 01:12:39 PM 21.4103 -74.3417 141° Southeast 413 475 33,000 -50 Level Miami Center
Mon 01:13:39 PM 21.3233 -74.2608 139° Southeast 413 475 32,900  Descending Miami Center
Mon 01:14:39 PM 21.2322 -74.1825 141° Southeast 413 475 33,000 50 Climbing Miami Center
Mon 01:15:39 PM 21.1431 -74.0997 139° Southeast 413 475 33,000 -50 Level Miami Center
Mon 01:16:39 PM 21.0517 -74.0192 141° Southeast 418 481 32,900  Descending Miami Center
Mon 01:17:39 PM 20.9628 -73.9411 141° Southeast 418 481 33,000 50 Climbing Miami Center
Mon 01:18:39 PM 20.8692 -73.8567 140° Southeast 426 490 33,000  Level Miami Center
Mon 01:19:39 PM 20.7800 -73.7808 142° Southeast 426 490 33,000  Level Miami Center
Mon 01:20:39 PM 20.6886 -73.7008 141° Southeast 426 490 33,000  Level Miami Center
Mon 01:21:39 PM 20.5908 -73.6122 140° Southeast 421 484 33,000  Level Miami Center
Mon 01:22:39 PM 20.4994 -73.5303 140° Southeast 426 490 33,000  Level Miami Center
Mon 01:23:39 PM 20.4058 -73.4506 141° Southeast 426 490 33,000 -50 Level Miami Center
Mon 01:24:39 PM 20.3144 -73.3689 140° Southeast 426 490 32,900 -50 Descending Miami Center
Mon 01:25:39 PM 20.2231 -73.2894 141° Southeast 426 490 32,900  Level Miami Center
Mon 01:26:39 PM 20.1294 -73.2100 141° Southeast 426 490 32,900 50 Level Miami Center
Mon 01:27:39 PM 20.0258 -73.1533 153° Southeast 426 490 33,000 100 Climbing Miami Center
Mon 01:29:00 PM 19.8969 -73.0770 151° Southeast  Level FlightAware Approximate
Mon 01:36:00 PM 19.2196 -72.7001 153° Southeast  Level FlightAware Approximate
Mon 01:37:00 PM 19.1225 -72.6471 153° Southeast  Level FlightAware Approximate
Mon 01:38:00 PM 19.0256 -72.5936 152° Southeast  Level FlightAware Approximate
Mon 01:39:00 PM 18.9291 -72.5395 152° Southeast  Level FlightAware Approximate
Mon 01:40:00 PM 18.8325 -72.4854 152° Southeast  Level FlightAware Approximate
Mon 01:41:00 PM 18.7360 -72.4314 152° Southeast  Level FlightAware Approximate
Mon 01:42:00 PM 18.6393 -72.3776 153° Southeast  Level FlightAware Approximate
Mon 01:43:00 PM 18.5420 -72.3251 153° Southeast  Level FlightAware Approximate
Mon 01:44:00 PM 18.4447 -72.2728 153° Southeast  Level FlightAware Approximate
Mon 01:45:00 PM 18.3518 -72.2122 148° Southeast  Level FlightAware Approximate
Mon 01:46:00 PM 18.2595 -72.1507 148° Southeast  Level FlightAware Approximate
Mon 01:47:00 PM 18.1672 -72.0892 148° Southeast  Level FlightAware Approximate
Mon 01:48:00 PM 18.0728 -72.0313 151° Southeast  Level FlightAware Approximate
Mon 01:49:00 PM 17.9772 -71.9756 151° Southeast  Level FlightAware Approximate
Mon 01:50:00 PM 17.8828 -71.9178 149° Southeast  Level FlightAware Approximate
Mon 01:51:00 PM 17.7894 -71.8583 149° Southeast  Level FlightAware Approximate
Mon 01:52:00 PM 17.6960 -71.7988 149° Southeast  Level FlightAware Approximate
Mon 01:53:00 PM 17.6025 -71.7394 149° Southeast  Level FlightAware Approximate
Mon 01:54:00 PM 17.5117 -71.6766 150° Southeast  Level FlightAware Approximate
Mon 01:55:00 PM 17.4172 -71.6190 150° Southeast  Level FlightAware Approximate
Mon 01:56:00 PM 17.3228 -71.5615 150° Southeast  Level FlightAware Approximate
Mon 01:57:00 PM 17.2283 -71.5041 150° Southeast  Level FlightAware Approximate
Mon 01:58:00 PM 17.1340 -71.4462 149° Southeast  Level FlightAware Approximate
Mon 01:59:00 PM 17.0402 -71.3876 149° Southeast  Level FlightAware Approximate
Mon 02:00:00 PM 16.9464 -71.3290 149° Southeast  Level FlightAware Approximate
Mon 02:01:00 PM 16.8524 -71.2708 150° Southeast  Level FlightAware Approximate
Mon 02:02:00 PM 16.7582 -71.2130 150° Southeast  Level FlightAware Approximate
Mon 02:03:00 PM 16.6640 -71.1552 150° Southeast  Level FlightAware Approximate
Mon 02:04:00 PM 16.5697 -71.0975 150° Southeast  Level FlightAware Approximate
Mon 02:05:00 PM 16.4755 -71.0398 150° Southeast  Level FlightAware Approximate
Mon 02:06:00 PM 16.3812 -70.9822 150° Southeast  Level FlightAware Approximate
Mon 02:07:00 PM 16.2869 -70.9247 150° Southeast  Level FlightAware Approximate
Mon 02:08:00 PM 16.1926 -70.8672 150° Southeast  Level FlightAware Approximate
Mon 02:09:00 PM 16.0983 -70.8098 150° Southeast  Level FlightAware Approximate
Mon 02:10:00 PM 16.0040 -70.7524 150° Southeast  Level FlightAware Approximate
Mon 02:11:00 PM 15.9100 -70.6945 149° Southeast  Level FlightAware Approximate
Mon 02:12:00 PM 15.8160 -70.6367 149° Southeast  Level FlightAware Approximate
Mon 02:13:00 PM 15.7219 -70.5789 149° Southeast  Level FlightAware Approximate
Mon 02:14:00 PM 15.6279 -70.5211 149° Southeast  Level FlightAware Approximate
Mon 02:15:00 PM 15.5338 -70.4634 149° Southeast  Level FlightAware Approximate
Mon 02:16:00 PM 15.4397 -70.4057 149° Southeast  Level FlightAware Approximate
Mon 02:17:00 PM 15.3456 -70.3481 149° Southeast  Level FlightAware Approximate
Mon 02:18:00 PM 15.2515 -70.2906 149° Southeast  Level FlightAware Approximate
Mon 02:19:00 PM 15.1574 -70.2331 149° Southeast  Level FlightAware Approximate
Mon 02:20:00 PM 15.0632 -70.1756 149° Southeast  Level FlightAware Approximate
Mon 02:21:00 PM 14.9691 -70.1182 150° Southeast  Level FlightAware Approximate
Mon 02:22:00 PM 14.8749 -70.0609 150° Southeast  Level FlightAware Approximate
Mon 02:23:00 PM 14.7807 -70.0036 150° Southeast  Level FlightAware Approximate
Mon 02:24:00 PM 14.6865 -69.9464 150° Southeast  Level FlightAware Approximate
Mon 02:25:00 PM 14.5923 -69.8892 150° Southeast  Level FlightAware Approximate
Mon 02:26:00 PM 14.4981 -69.8320 150° Southeast  Level FlightAware Approximate
Mon 02:27:00 PM 14.4038 -69.7749 150° Southeast  Level FlightAware Approximate
Mon 02:28:00 PM 14.3096 -69.7179 150° Southeast  Level FlightAware Approximate
Mon 02:29:00 PM 14.2153 -69.6609 150° Southeast  Level FlightAware Approximate
Mon 02:30:00 PM 14.1210 -69.6039 150° Southeast  Level FlightAware Approximate
Mon 02:31:00 PM 14.0268 -69.5470 150° Southeast  Level FlightAware Approximate
Mon 02:32:00 PM 13.9325 -69.4902 150° Southeast  Level FlightAware Approximate
Mon 02:33:00 PM 13.8381 -69.4333 150° Southeast  Level FlightAware Approximate
Mon 02:34:00 PM 13.7438 -69.3766 150° Southeast  Level FlightAware Approximate
Mon 02:35:00 PM 13.6495 -69.3199 150° Southeast  Level FlightAware Approximate
Mon 02:36:00 PM 13.5551 -69.2632 150° Southeast  Level FlightAware Approximate
Mon 02:37:00 PM 13.4607 -69.2066 150° Southeast  Level FlightAware Approximate
Mon 02:38:00 PM 13.3663 -69.1500 150° Southeast  Level FlightAware Approximate
Mon 02:39:00 PM 13.2719 -69.0934 150° Southeast  Level FlightAware Approximate
Mon 02:40:00 PM 13.1775 -69.0369 150° Southeast  Level FlightAware Approximate
Mon 02:41:00 PM 13.0831 -68.9805 150° Southeast  Level FlightAware Approximate
Mon 02:42:00 PM 12.9887 -68.9240 150° Southeast  Level FlightAware Approximate
Mon 02:43:00 PM 12.8942 -68.8677 150° Southeast  Level FlightAware Approximate
Mon 02:44:00 PM 12.7998 -68.8113 150° Southeast  Level FlightAware Approximate
Mon 02:45:00 PM 12.7053 -68.7551 150° Southeast  Level FlightAware Approximate
Mon 02:46:00 PM 12.6108 -68.6988 150° Southeast  Level FlightAware Approximate
Mon 02:47:00 PM 12.5163 -68.6426 150° Southeast  Level FlightAware Approximate
Mon 02:48:00 PM 12.4218 -68.5865 150° Southeast  Level FlightAware Approximate
Mon 02:49:00 PM 12.3273 -68.5303 150° Southeast  Level FlightAware Approximate
Mon 02:50:00 PM 12.2327 -68.4743 150° Southeast  Level FlightAware Approximate
Mon 02:51:00 PM 12.1382 -68.4182 150° Southeast  Level FlightAware Approximate
Mon 02:52:00 PM 12.0437 -68.3622 150° Southeast  Level FlightAware Approximate
Mon 02:53:00 PM 11.9487 -68.3069 152° Southeast  Level FlightAware Approximate
Mon 02:54:00 PM 11.8524 -68.2543 152° Southeast  Level FlightAware Approximate
Mon 02:55:00 PM 11.7583 -68.1979 144° Southeast  Level FlightAware Approximate
Mon 02:56:00 PM 11.6660 -68.1389 148° Southeast  Level FlightAware Approximate
Mon 02:57:00 PM 11.5732 -68.0799 148° Southeast  Level FlightAware Approximate
Mon 02:58:00 PM 11.4794 -68.0230 154° Southeast  Level FlightAware Approximate
Mon 02:59:00 PM 11.3817 -67.9732 151° Southeast  Level FlightAware Approximate
Mon 03:00:00 PM 11.2857 -67.9199 151° Southeast  Level FlightAware Approximate
Mon 03:01:00 PM 11.1911 -67.8641 149° Southeast  Level FlightAware Approximate
Mon 03:02:00 PM 11.0974 -67.8070 149° Southeast  Level FlightAware Approximate
Mon 03:03:00 PM 11.0036 -67.7499 149° Southeast  Level FlightAware Approximate
Mon 03:04:00 PM 10.9097 -67.6928 149° Southeast  Level FlightAware Approximate
Mon 03:05:00 PM 10.8148 -67.6378 151° Southeast  Level FlightAware Approximate
Mon 03:06:00 PM 10.7189 -67.5846 151° Southeast  Level FlightAware Approximate
Mon 03:07:00 PM 10.6617 -67.5118 95° East  Level FlightAware Approximate
Mon 03:08:00 PM 10.6516 -67.4011 95° East  Level FlightAware Approximate
Mon 03:09:00 PM 10.6407 -67.2905 96° East  Level FlightAware Approximate
Mon 03:10:00 PM 10.6322 -67.1799 109° East  Level FlightAware Approximate
Mon 03:11:00 PM 10.6167 -67.0713 90° East  Level FlightAware Approximate
Mon 03:12:00 PM 10.6031 -66.9906 90° East  Level Estimated
Mon 03:13:00 PM 10.6031 -66.9906 90° East  Level Estimated
Mon 03:14:00 PM 10.6031 -66.9906 90° East  Level Estimated
Mon 03:15:00 PM 10.6031 -66.9906 90° East  Level Estimated
Mon 03:16:00 PM 10.6031 -66.9906 90° East  Level Estimated
Mon 03:17:00 PM 10.6031 -66.9906 90° East  Level Estimated
Mon 03:18:00 PM 10.6031 -66.9906 90° East  Level Estimated
Mon 03:19:00 PM 10.6031 -66.9906 90° East  Level Estimated
Mon 03:20:00 PM 10.6031 -66.9906 90° East  Level Estimated
Mon 03:21:00 PM 10.6031 -66.9906 90° East  Level Estimated
Mon 03:22:00 PM 10.6031 -66.9906 90° East  Level Estimated
Mon 03:23:00 PM 10.6031 -66.9906 90° East  Level Estimated
Mon 03:24:00 PM 10.6031 -66.9906 90° East  Level Estimated
Mon 03:25:00 PM 10.6031 -66.9906 90° East  Level Estimated

Login

Don't have an account? Register now (free) for customized features, flight alerts, and more!